sensor_id;sensor_type;location;lat;lon;timestamp;P1;durP1;ratioP1;P2;durP2;ratioP2
29662;SDS011;16578;53.266;7.920;2023-09-12T00:00:54;27.80;;;24.13;;
29662;SDS011;16578;53.266;7.920;2023-09-12T00:03:21;27.73;;;24.17;;
29662;SDS011;16578;53.266;7.920;2023-09-12T00:05:54;26.55;;;23.13;;
29662;SDS011;16578;53.266;7.920;2023-09-12T00:08:21;27.50;;;24.50;;
29662;SDS011;16578;53.266;7.920;2023-09-12T00:10:57;27.85;;;23.98;;
29662;SDS011;16578;53.266;7.920;2023-09-12T00:13:24;30.17;;;24.15;;
29662;SDS011;16578;53.266;7.920;2023-09-12T00:15:50;26.10;;;23.35;;
29662;SDS011;16578;53.266;7.920;2023-09-12T00:18:15;30.15;;;24.65;;
29662;SDS011;16578;53.266;7.920;2023-09-12T00:20:41;27.63;;;24.25;;
29662;SDS011;16578;53.266;7.920;2023-09-12T00:23:06;25.45;;;22.75;;
29662;SDS011;16578;53.266;7.920;2023-09-12T00:25:32;25.40;;;22.70;;
29662;SDS011;16578;53.266;7.920;2023-09-12T00:27:57;25.67;;;23.05;;
29662;SDS011;16578;53.266;7.920;2023-09-12T00:30:23;26.38;;;23.02;;
29662;SDS011;16578;53.266;7.920;2023-09-12T00:32:49;25.45;;;22.75;;
29662;SDS011;16578;53.266;7.920;2023-09-12T00:35:14;26.90;;;23.98;;
29662;SDS011;16578;53.266;7.920;2023-09-12T00:37:40;25.65;;;22.90;;
29662;SDS011;16578;53.266;7.920;2023-09-12T00:40:06;25.65;;;22.75;;
29662;SDS011;16578;53.266;7.920;2023-09-12T00:42:32;24.52;;;21.92;;
29662;SDS011;16578;53.266;7.920;2023-09-12T00:44:57;25.40;;;22.65;;
29662;SDS011;16578;53.266;7.920;2023-09-12T00:47:23;30.23;;;23.27;;
29662;SDS011;16578;53.266;7.920;2023-09-12T00:49:49;25.25;;;22.70;;
29662;SDS011;16578;53.266;7.920;2023-09-12T00:52:16;25.33;;;22.75;;
29662;SDS011;16578;53.266;7.920;2023-09-12T00:54:43;22.17;;;19.83;;
29662;SDS011;16578;53.266;7.920;2023-09-12T00:57:09;24.17;;;21.65;;
29662;SDS011;16578;53.266;7.920;2023-09-12T00:59:34;25.98;;;22.38;;
29662;SDS011;16578;53.266;7.920;2023-09-12T01:02:00;24.25;;;21.70;;
29662;SDS011;16578;53.266;7.920;2023-09-12T01:04:27;26.13;;;23.38;;
29662;SDS011;16578;53.266;7.920;2023-09-12T01:06:54;27.60;;;23.55;;
29662;SDS011;16578;53.266;7.920;2023-09-12T01:09:19;24.95;;;22.33;;
29662;SDS011;16578;53.266;7.920;2023-09-12T01:11:45;24.63;;;22.00;;
29662;SDS011;16578;53.266;7.920;2023-09-12T01:14:11;25.73;;;22.80;;
29662;SDS011;16578;53.266;7.920;2023-09-12T01:16:36;26.42;;;23.02;;
29662;SDS011;16578;53.266;7.920;2023-09-12T01:19:03;24.80;;;22.23;;
29662;SDS011;16578;53.266;7.920;2023-09-12T01:21:48;24.38;;;21.77;;
29662;SDS011;16578;53.266;7.920;2023-09-12T01:30:17;24.27;;;21.75;;
29662;SDS011;16578;53.266;7.920;2023-09-12T01:35:10;23.90;;;21.35;;
29662;SDS011;16578;53.266;7.920;2023-09-12T01:37:36;27.88;;;24.00;;
29662;SDS011;16578;53.266;7.920;2023-09-12T01:40:02;26.73;;;23.85;;
29662;SDS011;16578;53.266;7.920;2023-09-12T01:42:30;26.77;;;24.02;;
29662;SDS011;16578;53.266;7.920;2023-09-12T01:45:00;27.38;;;24.48;;
29662;SDS011;16578;53.266;7.920;2023-09-12T01:47:27;29.65;;;25.08;;
29662;SDS011;16578;53.266;7.920;2023-09-12T01:49:56;28.95;;;25.80;;
29662;SDS011;16578;53.266;7.920;2023-09-12T01:52:24;30.48;;;27.25;;
29662;SDS011;16578;53.266;7.920;2023-09-12T01:54:51;33.80;;;28.10;;
29662;SDS011;16578;53.266;7.920;2023-09-12T01:57:17;31.23;;;27.55;;
29662;SDS011;16578;53.266;7.920;2023-09-12T01:59:46;31.95;;;27.40;;
29662;SDS011;16578;53.266;7.920;2023-09-12T02:02:12;30.50;;;27.17;;
29662;SDS011;16578;53.266;7.920;2023-09-12T02:04:38;30.85;;;27.60;;
29662;SDS011;16578;53.266;7.920;2023-09-12T02:07:03;29.00;;;25.80;;
29662;SDS011;16578;53.266;7.920;2023-09-12T02:09:29;30.27;;;27.20;;
29662;SDS011;16578;53.266;7.920;2023-09-12T02:11:54;32.05;;;28.77;;
29662;SDS011;16578;53.266;7.920;2023-09-12T02:14:20;30.17;;;27.02;;
29662;SDS011;16578;53.266;7.920;2023-09-12T02:16:45;29.80;;;26.63;;
29662;SDS011;16578;53.266;7.920;2023-09-12T02:19:11;27.60;;;24.70;;
29662;SDS011;16578;53.266;7.920;2023-09-12T02:21:36;29.17;;;25.55;;
29662;SDS011;16578;53.266;7.920;2023-09-12T02:24:02;29.98;;;26.77;;
29662;SDS011;16578;53.266;7.920;2023-09-12T02:26:28;32.63;;;26.75;;
29662;SDS011;16578;53.266;7.920;2023-09-12T02:28:53;31.63;;;27.70;;
29662;SDS011;16578;53.266;7.920;2023-09-12T02:31:19;29.92;;;26.80;;
29662;SDS011;16578;53.266;7.920;2023-09-12T02:33:44;31.70;;;26.67;;
29662;SDS011;16578;53.266;7.920;2023-09-12T02:36:10;29.80;;;26.60;;
29662;SDS011;16578;53.266;7.920;2023-09-12T02:38:36;29.23;;;26.17;;
29662;SDS011;16578;53.266;7.920;2023-09-12T02:41:01;28.77;;;25.73;;
29662;SDS011;16578;53.266;7.920;2023-09-12T02:43:27;30.35;;;26.42;;
29662;SDS011;16578;53.266;7.920;2023-09-12T02:45:53;27.40;;;24.52;;
29662;SDS011;16578;53.266;7.920;2023-09-12T02:48:19;28.92;;;25.88;;
29662;SDS011;16578;53.266;7.920;2023-09-12T02:50:45;28.88;;;25.58;;
29662;SDS011;16578;53.266;7.920;2023-09-12T02:53:10;27.85;;;25.00;;
29662;SDS011;16578;53.266;7.920;2023-09-12T02:55:39;29.10;;;25.88;;
29662;SDS011;16578;53.266;7.920;2023-09-12T02:58:06;29.42;;;26.50;;
29662;SDS011;16578;53.266;7.920;2023-09-12T03:00:31;28.27;;;25.27;;
29662;SDS011;16578;53.266;7.920;2023-09-12T03:02:57;33.65;;;27.40;;
29662;SDS011;16578;53.266;7.920;2023-09-12T03:05:22;32.42;;;28.55;;
29662;SDS011;16578;53.266;7.920;2023-09-12T03:07:48;31.23;;;27.73;;
29662;SDS011;16578;53.266;7.920;2023-09-12T03:10:13;38.85;;;28.95;;
29662;SDS011;16578;53.266;7.920;2023-09-12T03:12:39;31.58;;;27.38;;
29662;SDS011;16578;53.266;7.920;2023-09-12T03:15:05;32.13;;;28.63;;
29662;SDS011;16578;53.266;7.920;2023-09-12T03:17:31;33.95;;;29.33;;
29662;SDS011;16578;53.266;7.920;2023-09-12T03:19:57;33.97;;;30.30;;
29662;SDS011;16578;53.266;7.920;2023-09-12T03:22:22;35.67;;;30.70;;
29662;SDS011;16578;53.266;7.920;2023-09-12T03:24:49;33.65;;;30.23;;
29662;SDS011;16578;53.266;7.920;2023-09-12T03:27:14;32.97;;;29.42;;
29662;SDS011;16578;53.266;7.920;2023-09-12T03:29:40;33.22;;;29.65;;
29662;SDS011;16578;53.266;7.920;2023-09-12T03:32:05;36.00;;;29.27;;
29662;SDS011;16578;53.266;7.920;2023-09-12T03:34:31;34.17;;;29.60;;
29662;SDS011;16578;53.266;7.920;2023-09-12T03:36:56;34.17;;;30.58;;
29662;SDS011;16578;53.266;7.920;2023-09-12T03:39:22;31.60;;;28.25;;
29662;SDS011;16578;53.266;7.920;2023-09-12T03:41:48;34.15;;;30.00;;
29662;SDS011;16578;53.266;7.920;2023-09-12T03:44:13;34.50;;;30.67;;
29662;SDS011;16578;53.266;7.920;2023-09-12T03:46:39;33.88;;;28.60;;
29662;SDS011;16578;53.266;7.920;2023-09-12T03:49:04;34.55;;;30.08;;
29662;SDS011;16578;53.266;7.920;2023-09-12T03:51:30;34.78;;;30.52;;
29662;SDS011;16578;53.266;7.920;2023-09-12T03:53:55;35.17;;;29.60;;
29662;SDS011;16578;53.266;7.920;2023-09-12T03:56:21;35.25;;;29.75;;
29662;SDS011;16578;53.266;7.920;2023-09-12T03:58:46;34.63;;;31.00;;
29662;SDS011;16578;53.266;7.920;2023-09-12T04:01:12;37.50;;;30.65;;
29662;SDS011;16578;53.266;7.920;2023-09-12T04:03:37;35.38;;;31.65;;
29662;SDS011;16578;53.266;7.920;2023-09-12T04:06:03;34.90;;;31.27;;
29662;SDS011;16578;53.266;7.920;2023-09-12T04:08:29;36.00;;;32.17;;
29662;SDS011;16578;53.266;7.920;2023-09-12T04:10:54;35.47;;;31.55;;
29662;SDS011;16578;53.266;7.920;2023-09-12T04:13:20;34.95;;;31.20;;
29662;SDS011;16578;53.266;7.920;2023-09-12T04:15:45;36.03;;;32.15;;
29662;SDS011;16578;53.266;7.920;2023-09-12T04:18:11;34.70;;;31.05;;
29662;SDS011;16578;53.266;7.920;2023-09-12T04:20:36;32.03;;;28.67;;
29662;SDS011;16578;53.266;7.920;2023-09-12T04:23:02;33.00;;;29.65;;
29662;SDS011;16578;53.266;7.920;2023-09-12T04:25:29;34.83;;;31.15;;
29662;SDS011;16578;53.266;7.920;2023-09-12T04:27:58;33.50;;;29.33;;
29662;SDS011;16578;53.266;7.920;2023-09-12T04:30:23;33.17;;;29.65;;
29662;SDS011;16578;53.266;7.920;2023-09-12T04:32:49;33.80;;;30.13;;
29662;SDS011;16578;53.266;7.920;2023-09-12T04:35:15;34.13;;;30.15;;
29662;SDS011;16578;53.266;7.920;2023-09-12T04:37:40;35.08;;;31.27;;
29662;SDS011;16578;53.266;7.920;2023-09-12T04:40:06;34.28;;;30.70;;
29662;SDS011;16578;53.266;7.920;2023-09-12T04:42:32;34.53;;;30.73;;
29662;SDS011;16578;53.266;7.920;2023-09-12T04:44:58;36.28;;;31.20;;
29662;SDS011;16578;53.266;7.920;2023-09-12T04:47:23;38.25;;;31.67;;
29662;SDS011;16578;53.266;7.920;2023-09-12T04:49:49;41.65;;;30.90;;
29662;SDS011;16578;53.266;7.920;2023-09-12T04:52:14;34.92;;;31.20;;
29662;SDS011;16578;53.266;7.920;2023-09-12T04:54:40;37.65;;;30.42;;
29662;SDS011;16578;53.266;7.920;2023-09-12T04:57:06;33.55;;;29.92;;
29662;SDS011;16578;53.266;7.920;2023-09-12T04:59:32;31.98;;;28.63;;
29662;SDS011;16578;53.266;7.920;2023-09-12T05:01:57;34.60;;;30.80;;
29662;SDS011;16578;53.266;7.920;2023-09-12T05:04:23;37.50;;;31.08;;
29662;SDS011;16578;53.266;7.920;2023-09-12T05:06:49;35.05;;;29.73;;
29662;SDS011;16578;53.266;7.920;2023-09-12T05:09:14;31.65;;;27.40;;
29662;SDS011;16578;53.266;7.920;2023-09-12T05:11:40;33.40;;;29.83;;
29662;SDS011;16578;53.266;7.920;2023-09-12T05:14:05;36.40;;;31.58;;
29662;SDS011;16578;53.266;7.920;2023-09-12T05:16:31;33.70;;;30.02;;
29662;SDS011;16578;53.266;7.920;2023-09-12T05:18:56;34.90;;;31.00;;
29662;SDS011;16578;53.266;7.920;2023-09-12T05:21:22;36.13;;;31.80;;
29662;SDS011;16578;53.266;7.920;2023-09-12T05:23:48;33.03;;;29.52;;
29662;SDS011;16578;53.266;7.920;2023-09-12T05:26:13;36.47;;;30.60;;
29662;SDS011;16578;53.266;7.920;2023-09-12T05:28:39;36.45;;;32.47;;
29662;SDS011;16578;53.266;7.920;2023-09-12T05:31:04;36.85;;;31.40;;
29662;SDS011;16578;53.266;7.920;2023-09-12T05:33:30;34.03;;;30.42;;
29662;SDS011;16578;53.266;7.920;2023-09-12T05:35:55;37.75;;;31.80;;
29662;SDS011;16578;53.266;7.920;2023-09-12T05:38:21;41.45;;;32.53;;
29662;SDS011;16578;53.266;7.920;2023-09-12T05:40:47;37.08;;;32.08;;
29662;SDS011;16578;53.266;7.920;2023-09-12T05:43:15;39.90;;;33.00;;
29662;SDS011;16578;53.266;7.920;2023-09-12T05:45:40;37.30;;;32.53;;
29662;SDS011;16578;53.266;7.920;2023-09-12T05:48:06;35.17;;;31.42;;
29662;SDS011;16578;53.266;7.920;2023-09-12T05:50:32;35.45;;;31.65;;
29662;SDS011;16578;53.266;7.920;2023-09-12T05:52:57;36.10;;;31.25;;
29662;SDS011;16578;53.266;7.920;2023-09-12T05:55:23;39.08;;;33.67;;
29662;SDS011;16578;53.266;7.920;2023-09-12T05:57:49;37.45;;;33.17;;
29662;SDS011;16578;53.266;7.920;2023-09-12T06:00:18;36.97;;;31.98;;
29662;SDS011;16578;53.266;7.920;2023-09-12T06:02:44;37.70;;;31.63;;
29662;SDS011;16578;53.266;7.920;2023-09-12T06:05:10;37.45;;;32.85;;
29662;SDS011;16578;53.266;7.920;2023-09-12T06:07:36;37.67;;;33.13;;
29662;SDS011;16578;53.266;7.920;2023-09-12T06:10:04;38.42;;;31.30;;
29662;SDS011;16578;53.266;7.920;2023-09-12T06:12:29;35.45;;;30.25;;
29662;SDS011;16578;53.266;7.920;2023-09-12T06:14:57;35.63;;;30.73;;
29662;SDS011;16578;53.266;7.920;2023-09-12T06:17:23;34.97;;;31.05;;
29662;SDS011;16578;53.266;7.920;2023-09-12T06:19:49;36.38;;;31.45;;
29662;SDS011;16578;53.266;7.920;2023-09-12T06:22:14;36.13;;;32.20;;
29662;SDS011;16578;53.266;7.920;2023-09-12T06:24:42;36.17;;;28.95;;
29662;SDS011;16578;53.266;7.920;2023-09-12T06:27:08;37.75;;;31.45;;
29662;SDS011;16578;53.266;7.920;2023-09-12T06:29:33;35.20;;;31.05;;
29662;SDS011;16578;53.266;7.920;2023-09-12T06:31:59;33.47;;;29.90;;
29662;SDS011;16578;53.266;7.920;2023-09-12T06:34:24;38.17;;;31.20;;
29662;SDS011;16578;53.266;7.920;2023-09-12T06:36:52;35.80;;;31.85;;
29662;SDS011;16578;53.266;7.920;2023-09-12T06:39:17;34.22;;;30.67;;
29662;SDS011;16578;53.266;7.920;2023-09-12T06:41:43;35.40;;;31.23;;
29662;SDS011;16578;53.266;7.920;2023-09-12T06:44:08;33.17;;;29.60;;
29662;SDS011;16578;53.266;7.920;2023-09-12T06:46:34;33.42;;;29.80;;
29662;SDS011;16578;53.266;7.920;2023-09-12T06:49:03;43.63;;;33.88;;
29662;SDS011;16578;53.266;7.920;2023-09-12T06:51:28;35.92;;;30.52;;
29662;SDS011;16578;53.266;7.920;2023-09-12T06:53:54;39.10;;;32.17;;
29662;SDS011;16578;53.266;7.920;2023-09-12T06:56:20;37.90;;;30.65;;
29662;SDS011;16578;53.266;7.920;2023-09-12T06:58:46;37.40;;;32.10;;
29662;SDS011;16578;53.266;7.920;2023-09-12T07:01:12;37.63;;;31.52;;
29662;SDS011;16578;53.266;7.920;2023-09-12T07:03:38;36.00;;;31.27;;
29662;SDS011;16578;53.266;7.920;2023-09-12T07:06:03;34.83;;;30.45;;
29662;SDS011;16578;53.266;7.920;2023-09-12T07:08:30;34.45;;;30.02;;
29662;SDS011;16578;53.266;7.920;2023-09-12T07:10:57;35.42;;;31.45;;
29662;SDS011;16578;53.266;7.920;2023-09-12T07:13:23;38.10;;;32.38;;
29662;SDS011;16578;53.266;7.920;2023-09-12T07:15:52;36.45;;;31.00;;
29662;SDS011;16578;53.266;7.920;2023-09-12T07:18:18;37.80;;;31.52;;
29662;SDS011;16578;53.266;7.920;2023-09-12T07:20:45;37.22;;;31.23;;
29662;SDS011;16578;53.266;7.920;2023-09-12T07:23:10;38.35;;;32.67;;
29662;SDS011;16578;53.266;7.920;2023-09-12T07:25:40;37.25;;;31.80;;
29662;SDS011;16578;53.266;7.920;2023-09-12T07:28:09;36.63;;;31.73;;
29662;SDS011;16578;53.266;7.920;2023-09-12T07:30:35;37.15;;;29.88;;
29662;SDS011;16578;53.266;7.920;2023-09-12T07:33:02;38.33;;;32.75;;
29662;SDS011;16578;53.266;7.920;2023-09-12T07:35:29;37.25;;;32.40;;
29662;SDS011;16578;53.266;7.920;2023-09-12T07:37:55;34.78;;;31.13;;
29662;SDS011;16578;53.266;7.920;2023-09-12T07:40:21;37.40;;;32.85;;
29662;SDS011;16578;53.266;7.920;2023-09-12T07:42:46;35.00;;;31.17;;
29662;SDS011;16578;53.266;7.920;2023-09-12T07:45:12;35.20;;;30.33;;
29662;SDS011;16578;53.266;7.920;2023-09-12T07:47:38;34.25;;;30.33;;
29662;SDS011;16578;53.266;7.920;2023-09-12T07:50:04;36.17;;;30.58;;
29662;SDS011;16578;53.266;7.920;2023-09-12T07:52:31;33.38;;;28.63;;
29662;SDS011;16578;53.266;7.920;2023-09-12T07:55:00;34.35;;;28.65;;
29662;SDS011;16578;53.266;7.920;2023-09-12T07:57:27;33.28;;;28.77;;
29662;SDS011;16578;53.266;7.920;2023-09-12T07:59:54;35.92;;;30.30;;
29662;SDS011;16578;53.266;7.920;2023-09-12T08:02:19;34.55;;;30.85;;
29662;SDS011;16578;53.266;7.920;2023-09-12T08:04:45;37.50;;;30.23;;
29662;SDS011;16578;53.266;7.920;2023-09-12T08:07:10;37.58;;;29.95;;
29662;SDS011;16578;53.266;7.920;2023-09-12T08:09:49;35.55;;;30.30;;
29662;SDS011;16578;53.266;7.920;2023-09-12T08:12:17;33.92;;;29.02;;
29662;SDS011;16578;53.266;7.920;2023-09-12T08:14:43;32.60;;;29.05;;
29662;SDS011;16578;53.266;7.920;2023-09-12T08:17:10;33.78;;;29.67;;
29662;SDS011;16578;53.266;7.920;2023-09-12T08:19:36;33.45;;;29.52;;
29662;SDS011;16578;53.266;7.920;2023-09-12T08:22:01;34.78;;;28.50;;
29662;SDS011;16578;53.266;7.920;2023-09-12T08:24:27;35.25;;;27.75;;
29662;SDS011;16578;53.266;7.920;2023-09-12T08:26:53;30.88;;;27.40;;
29662;SDS011;16578;53.266;7.920;2023-09-12T08:29:19;32.67;;;28.20;;
29662;SDS011;16578;53.266;7.920;2023-09-12T08:31:45;35.97;;;27.67;;
29662;SDS011;16578;53.266;7.920;2023-09-12T08:34:12;34.67;;;27.88;;
29662;SDS011;16578;53.266;7.920;2023-09-12T08:36:38;34.70;;;27.92;;
29662;SDS011;16578;53.266;7.920;2023-09-12T08:39:04;35.88;;;28.92;;
29662;SDS011;16578;53.266;7.920;2023-09-12T08:41:31;31.52;;;28.13;;
29662;SDS011;16578;53.266;7.920;2023-09-12T08:43:57;31.33;;;27.92;;
29662;SDS011;16578;53.266;7.920;2023-09-12T08:46:23;33.50;;;28.42;;
29662;SDS011;16578;53.266;7.920;2023-09-12T08:48:49;33.47;;;28.52;;
29662;SDS011;16578;53.266;7.920;2023-09-12T08:51:15;34.33;;;28.60;;
29662;SDS011;16578;53.266;7.920;2023-09-12T08:53:41;32.88;;;28.05;;
29662;SDS011;16578;53.266;7.920;2023-09-12T08:56:07;30.33;;;26.98;;
29662;SDS011;16578;53.266;7.920;2023-09-12T08:58:34;30.80;;;26.70;;
29662;SDS011;16578;53.266;7.920;2023-09-12T09:01:00;32.20;;;27.05;;
29662;SDS011;16578;53.266;7.920;2023-09-12T09:03:28;36.75;;;28.95;;
29662;SDS011;16578;53.266;7.920;2023-09-12T09:05:54;29.20;;;26.13;;
29662;SDS011;16578;53.266;7.920;2023-09-12T09:08:22;28.92;;;25.77;;
29662;SDS011;16578;53.266;7.920;2023-09-12T09:10:59;28.33;;;25.25;;
29662;SDS011;16578;53.266;7.920;2023-09-12T09:13:28;30.65;;;26.73;;
29662;SDS011;16578;53.266;7.920;2023-09-12T09:18:52;28.13;;;25.13;;
29662;SDS011;16578;53.266;7.920;2023-09-12T09:21:18;28.02;;;24.92;;
29662;SDS011;16578;53.266;7.920;2023-09-12T09:23:51;28.17;;;25.17;;
29662;SDS011;16578;53.266;7.920;2023-09-12T09:26:18;32.78;;;26.88;;
29662;SDS011;16578;53.266;7.920;2023-09-12T09:28:44;30.30;;;27.00;;
29662;SDS011;16578;53.266;7.920;2023-09-12T09:31:10;30.13;;;26.10;;
29662;SDS011;16578;53.266;7.920;2023-09-12T09:33:36;31.67;;;27.15;;
29662;SDS011;16578;53.266;7.920;2023-09-12T09:36:05;29.88;;;26.30;;
29662;SDS011;16578;53.266;7.920;2023-09-12T09:38:32;30.42;;;25.95;;
29662;SDS011;16578;53.266;7.920;2023-09-12T09:41:00;28.30;;;25.30;;
29662;SDS011;16578;53.266;7.920;2023-09-12T09:43:28;27.25;;;24.40;;
29662;SDS011;16578;53.266;7.920;2023-09-12T09:45:56;27.15;;;24.20;;
29662;SDS011;16578;53.266;7.920;2023-09-12T09:48:23;27.85;;;24.85;;
29662;SDS011;16578;53.266;7.920;2023-09-12T09:50:52;28.52;;;25.52;;
29662;SDS011;16578;53.266;7.920;2023-09-12T09:53:21;25.88;;;22.83;;
29662;SDS011;16578;53.266;7.920;2023-09-12T09:56:07;26.05;;;23.30;;
29662;SDS011;16578;53.266;7.920;2023-09-12T09:58:55;26.23;;;22.33;;
29662;SDS011;16578;53.266;7.920;2023-09-12T10:01:28;23.88;;;21.35;;
29662;SDS011;16578;53.266;7.920;2023-09-12T10:03:59;27.63;;;23.33;;
29662;SDS011;16578;53.266;7.920;2023-09-12T10:06:26;26.27;;;22.67;;
29662;SDS011;16578;53.266;7.920;2023-09-12T10:08:53;24.17;;;21.13;;
29662;SDS011;16578;53.266;7.920;2023-09-12T10:11:25;26.40;;;23.17;;
29662;SDS011;16578;53.266;7.920;2023-09-12T10:13:55;26.38;;;23.17;;
29662;SDS011;16578;53.266;7.920;2023-09-12T10:16:29;24.48;;;21.90;;
29662;SDS011;16578;53.266;7.920;2023-09-12T10:19:04;24.95;;;22.35;;
29662;SDS011;16578;53.266;7.920;2023-09-12T10:24:38;24.40;;;21.70;;
29662;SDS011;16578;53.266;7.920;2023-09-12T10:27:05;22.23;;;19.90;;
29662;SDS011;16578;53.266;7.920;2023-09-12T10:29:31;26.33;;;22.15;;
29662;SDS011;16578;53.266;7.920;2023-09-12T10:31:57;27.35;;;23.05;;
29662;SDS011;16578;53.266;7.920;2023-09-12T10:34:24;27.25;;;24.35;;
29662;SDS011;16578;53.266;7.920;2023-09-12T10:36:50;28.87;;;23.73;;
29662;SDS011;16578;53.266;7.920;2023-09-12T10:39:16;28.20;;;24.15;;
29662;SDS011;16578;53.266;7.920;2023-09-12T10:41:44;27.58;;;24.42;;
29662;SDS011;16578;53.266;7.920;2023-09-12T10:44:15;27.25;;;24.42;;
29662;SDS011;16578;53.266;7.920;2023-09-12T10:46:42;27.35;;;24.45;;
29662;SDS011;16578;53.266;7.920;2023-09-12T10:49:10;26.75;;;23.55;;
29662;SDS011;16578;53.266;7.920;2023-09-12T10:51:38;27.63;;;24.75;;
29662;SDS011;16578;53.266;7.920;2023-09-12T10:54:05;26.43;;;23.70;;
29662;SDS011;16578;53.266;7.920;2023-09-12T10:56:33;29.05;;;25.42;;
29662;SDS011;16578;53.266;7.920;2023-09-12T11:01:34;24.27;;;21.58;;
29662;SDS011;16578;53.266;7.920;2023-09-12T11:06:48;27.08;;;23.85;;
29662;SDS011;16578;53.266;7.920;2023-09-12T11:11:49;24.42;;;21.83;;
29662;SDS011;16578;53.266;7.920;2023-09-12T11:14:30;23.83;;;21.30;;
29662;SDS011;16578;53.266;7.920;2023-09-12T11:19:31;25.30;;;22.70;;
29662;SDS011;16578;53.266;7.920;2023-09-12T11:22:20;25.92;;;22.20;;
29662;SDS011;16578;53.266;7.920;2023-09-12T11:27:12;23.70;;;21.17;;
29662;SDS011;16578;53.266;7.920;2023-09-12T11:29:38;24.15;;;21.58;;
29662;SDS011;16578;53.266;7.920;2023-09-12T11:32:05;22.95;;;20.52;;
29662;SDS011;16578;53.266;7.920;2023-09-12T11:34:41;21.23;;;19.02;;
29662;SDS011;16578;53.266;7.920;2023-09-12T11:37:08;25.23;;;22.30;;
29662;SDS011;16578;53.266;7.920;2023-09-12T11:39:35;22.23;;;19.92;;
29662;SDS011;16578;53.266;7.920;2023-09-12T11:42:02;24.85;;;18.55;;
29662;SDS011;16578;53.266;7.920;2023-09-12T11:44:29;24.73;;;21.55;;
29662;SDS011;16578;53.266;7.920;2023-09-12T11:46:56;21.67;;;19.33;;
29662;SDS011;16578;53.266;7.920;2023-09-12T11:49:37;21.95;;;19.70;;
29662;SDS011;16578;53.266;7.920;2023-09-12T11:52:05;25.63;;;21.48;;
29662;SDS011;16578;53.266;7.920;2023-09-12T11:54:41;23.15;;;20.60;;
29662;SDS011;16578;53.266;7.920;2023-09-12T11:57:08;20.85;;;18.73;;
29662;SDS011;16578;53.266;7.920;2023-09-12T11:59:39;17.33;;;15.52;;
29662;SDS011;16578;53.266;7.920;2023-09-12T12:02:06;21.20;;;18.77;;
29662;SDS011;16578;53.266;7.920;2023-09-12T12:04:35;18.33;;;16.48;;
29662;SDS011;16578;53.266;7.920;2023-09-12T12:07:02;20.48;;;17.20;;
29662;SDS011;16578;53.266;7.920;2023-09-12T12:09:31;18.98;;;17.00;;
29662;SDS011;16578;53.266;7.920;2023-09-12T12:12:08;17.33;;;15.52;;
29662;SDS011;16578;53.266;7.920;2023-09-12T12:14:38;17.58;;;15.30;;
29662;SDS011;16578;53.266;7.920;2023-09-12T12:17:05;16.25;;;14.52;;
29662;SDS011;16578;53.266;7.920;2023-09-12T12:19:33;19.67;;;15.95;;
29662;SDS011;16578;53.266;7.920;2023-09-12T12:21:58;16.73;;;14.68;;
29662;SDS011;16578;53.266;7.920;2023-09-12T12:24:24;16.30;;;14.60;;
29662;SDS011;16578;53.266;7.920;2023-09-12T12:26:49;15.23;;;13.63;;
29662;SDS011;16578;53.266;7.920;2023-09-12T12:29:15;16.92;;;15.07;;
29662;SDS011;16578;53.266;7.920;2023-09-12T12:31:40;16.90;;;15.10;;
29662;SDS011;16578;53.266;7.920;2023-09-12T12:34:06;16.85;;;14.77;;
29662;SDS011;16578;53.266;7.920;2023-09-12T12:36:32;15.32;;;13.60;;
29662;SDS011;16578;53.266;7.920;2023-09-12T12:38:57;13.57;;;11.77;;
29662;SDS011;16578;53.266;7.920;2023-09-12T12:41:27;13.10;;;11.82;;
29662;SDS011;16578;53.266;7.920;2023-09-12T12:43:56;14.48;;;12.95;;
29662;SDS011;16578;53.266;7.920;2023-09-12T12:46:25;14.80;;;12.27;;
29662;SDS011;16578;53.266;7.920;2023-09-12T12:48:51;15.18;;;12.43;;
29662;SDS011;16578;53.266;7.920;2023-09-12T12:51:18;14.07;;;12.68;;
29662;SDS011;16578;53.266;7.920;2023-09-12T12:53:51;11.45;;;10.00;;
29662;SDS011;16578;53.266;7.920;2023-09-12T12:56:19;10.40;;;9.40;;
29662;SDS011;16578;53.266;7.920;2023-09-12T12:58:48;14.45;;;11.82;;
29662;SDS011;16578;53.266;7.920;2023-09-12T13:01:15;13.50;;;12.15;;
29662;SDS011;16578;53.266;7.920;2023-09-12T13:03:41;13.38;;;12.00;;
29662;SDS011;16578;53.266;7.920;2023-09-12T13:06:07;13.18;;;11.40;;
29662;SDS011;16578;53.266;7.920;2023-09-12T13:08:38;17.27;;;13.35;;
29662;SDS011;16578;53.266;7.920;2023-09-12T13:11:05;14.93;;;13.30;;
29662;SDS011;16578;53.266;7.920;2023-09-12T13:13:30;17.35;;;14.70;;
29662;SDS011;16578;53.266;7.920;2023-09-12T13:15:56;15.88;;;13.50;;
29662;SDS011;16578;53.266;7.920;2023-09-12T13:18:22;14.48;;;12.38;;
29662;SDS011;16578;53.266;7.920;2023-09-12T13:20:48;17.30;;;14.05;;
29662;SDS011;16578;53.266;7.920;2023-09-12T13:23:13;15.77;;;14.07;;
29662;SDS011;16578;53.266;7.920;2023-09-12T13:25:38;16.45;;;13.75;;
29662;SDS011;16578;53.266;7.920;2023-09-12T13:28:04;14.18;;;12.68;;
29662;SDS011;16578;53.266;7.920;2023-09-12T13:30:30;13.68;;;11.98;;
29662;SDS011;16578;53.266;7.920;2023-09-12T13:32:56;15.45;;;13.48;;
29662;SDS011;16578;53.266;7.920;2023-09-12T13:35:21;13.90;;;11.82;;
29662;SDS011;16578;53.266;7.920;2023-09-12T13:37:47;11.98;;;10.77;;
29662;SDS011;16578;53.266;7.920;2023-09-12T13:40:12;11.93;;;10.73;;
29662;SDS011;16578;53.266;7.920;2023-09-12T13:42:38;13.57;;;10.82;;
29662;SDS011;16578;53.266;7.920;2023-09-12T13:45:04;11.45;;;10.35;;
29662;SDS011;16578;53.266;7.920;2023-09-12T13:47:30;13.80;;;10.80;;
29662;SDS011;16578;53.266;7.920;2023-09-12T13:49:57;12.13;;;10.68;;
29662;SDS011;16578;53.266;7.920;2023-09-12T13:52:25;12.25;;;10.88;;
29662;SDS011;16578;53.266;7.920;2023-09-12T13:54:51;11.18;;;10.13;;
29662;SDS011;16578;53.266;7.920;2023-09-12T13:57:16;11.02;;;9.93;;
29662;SDS011;16578;53.266;7.920;2023-09-12T13:59:42;9.75;;;8.85;;
29662;SDS011;16578;53.266;7.920;2023-09-12T14:02:08;10.73;;;9.15;;
29662;SDS011;16578;53.266;7.920;2023-09-12T14:04:33;11.25;;;10.10;;
29662;SDS011;16578;53.266;7.920;2023-09-12T14:06:59;12.75;;;9.93;;
29662;SDS011;16578;53.266;7.920;2023-09-12T14:09:25;10.43;;;9.35;;
29662;SDS011;16578;53.266;7.920;2023-09-12T14:11:50;11.30;;;9.13;;
29662;SDS011;16578;53.266;7.920;2023-09-12T14:14:16;10.15;;;9.13;;
29662;SDS011;16578;53.266;7.920;2023-09-12T14:16:44;10.65;;;9.35;;
29662;SDS011;16578;53.266;7.920;2023-09-12T14:19:10;8.95;;;8.00;;
29662;SDS011;16578;53.266;7.920;2023-09-12T14:21:36;9.55;;;8.35;;
29662;SDS011;16578;53.266;7.920;2023-09-12T14:24:02;10.63;;;7.75;;
29662;SDS011;16578;53.266;7.920;2023-09-12T14:26:28;8.93;;;8.02;;
29662;SDS011;16578;53.266;7.920;2023-09-12T14:28:53;8.32;;;7.35;;
29662;SDS011;16578;53.266;7.920;2023-09-12T14:31:20;9.05;;;7.93;;
29662;SDS011;16578;53.266;7.920;2023-09-12T14:33:49;9.35;;;8.40;;
29662;SDS011;16578;53.266;7.920;2023-09-12T14:36:17;9.38;;;8.27;;
29662;SDS011;16578;53.266;7.920;2023-09-12T14:38:42;8.77;;;7.15;;
29662;SDS011;16578;53.266;7.920;2023-09-12T14:41:11;9.32;;;8.40;;
29662;SDS011;16578;53.266;7.920;2023-09-12T14:43:38;9.95;;;8.18;;
29662;SDS011;16578;53.266;7.920;2023-09-12T14:46:03;10.35;;;8.88;;
29662;SDS011;16578;53.266;7.920;2023-09-12T14:48:30;11.13;;;8.93;;